Time;durP1;ratioP1;P1;durP2;ratioP2;P2;SDS_P1;SDS_P2;PMS_P1;PMS_P2;Temp;Humidity;BMP_temperature;BMP_pressure;BME280_temperature;BME280_humidity;BME280_pressure;Samples;Min_cycle;Max_cycle;Signal;HPM_P1;HPM_P2
2020/12/21 00:02:25;;;;;;;10.10;2.28;;;;;;;;;;4947218;28;20039;-58
2020/12/21 00:04:51;;;;;;;12.07;3.00;;;;;;;;;;4955591;28;20027;-57
2020/12/21 00:07:18;;;;;;;14.80;2.50;;;;;;;;;;4960338;28;20048;-59
2020/12/21 00:09:44;;;;;;;11.15;3.05;;;;;;;;;;4947172;28;20048;-59
2020/12/21 00:12:11;;;;;;;9.63;2.60;;;;;;;;;;4944162;28;20080;-59
2020/12/21 00:14:38;;;;;;;11.13;2.95;;;;;;;;;;4945726;29;20114;-59
2020/12/21 00:17:04;;;;;;;8.50;2.47;;;;;;;;;;4943223;28;20054;-61
2020/12/21 00:19:30;;;;;;;10.32;2.92;;;;;;;;;;4970099;28;20068;-58
2020/12/21 00:21:56;;;;;;;9.93;2.45;;;;;;;;;;4927190;28;20052;-58
2020/12/21 00:24:23;;;;;;;11.30;2.65;;;;;;;;;;4960751;28;20035;-58
2020/12/21 00:26:51;;;;;;;10.05;2.40;;;;;;;;;;4980321;28;20514;-59
2020/12/21 00:29:18;;;;;;;9.38;2.30;;;;;;;;;;4960425;28;20043;-58
2020/12/21 00:31:45;;;;;;;9.60;2.60;;;;;;;;;;4965621;28;20039;-58
2020/12/21 00:34:12;;;;;;;10.65;2.38;;;;;;;;;;4957470;28;20047;-58
2020/12/21 00:36:40;;;;;;;10.88;2.72;;;;;;;;;;4962502;28;20150;-58
2020/12/21 00:39:06;;;;;;;8.00;2.92;;;;;;;;;;4942307;28;20114;-61
2020/12/21 00:41:32;;;;;;;8.88;2.08;;;;;;;;;;4961743;28;20039;-55
2020/12/21 00:43:59;;;;;;;8.90;2.72;;;;;;;;;;4951284;28;20099;-58
2020/12/21 00:46:26;;;;;;;16.33;2.63;;;;;;;;;;4966119;28;20058;-58
2020/12/21 00:48:53;;;;;;;10.80;2.50;;;;;;;;;;4962666;28;20065;-60
2020/12/21 00:51:19;;;;;;;10.88;2.38;;;;;;;;;;4966170;28;20054;-58
2020/12/21 00:53:46;;;;;;;11.80;2.92;;;;;;;;;;4973086;28;20128;-60
2020/12/21 00:56:12;;;;;;;8.88;2.65;;;;;;;;;;4962865;28;20028;-59
2020/12/21 00:58:40;;;;;;;12.90;2.92;;;;;;;;;;4957504;28;20065;-60
2020/12/21 01:01:08;;;;;;;8.73;3.43;;;;;;;;;;4949583;28;20048;-58
2020/12/21 01:03:34;;;;;;;10.20;3.40;;;;;;;;;;4964764;28;20288;-58
2020/12/21 01:06:01;;;;;;;10.50;3.42;;;;;;;;;;4942942;28;20052;-58
2020/12/21 01:08:28;;;;;;;10.75;3.47;;;;;;;;;;4961351;28;20075;-58
2020/12/21 01:10:54;;;;;;;9.48;3.25;;;;;;;;;;4945015;28;20106;-60
2020/12/21 01:13:20;;;;;;;14.77;4.30;;;;;;;;;;4961525;28;20035;-59
2020/12/21 01:15:47;;;;;;;13.27;3.80;;;;;;;;;;4956385;28;20035;-58
2020/12/21 01:18:13;;;;;;;11.98;3.08;;;;;;;;;;4961298;28;20040;-59
2020/12/21 01:20:40;;;;;;;19.48;4.00;;;;;;;;;;4944078;28;20047;-58
2020/12/21 01:23:07;;;;;;;14.10;3.35;;;;;;;;;;4962590;28;20067;-61
2020/12/21 01:25:34;;;;;;;9.73;3.22;;;;;;;;;;4958118;28;20055;-60
2020/12/21 01:28:00;;;;;;;8.68;3.15;;;;;;;;;;4963390;28;20058;-61
2020/12/21 01:30:26;;;;;;;17.50;3.83;;;;;;;;;;4958514;28;20051;-58
2020/12/21 01:32:52;;;;;;;12.40;3.13;;;;;;;;;;4962024;28;20118;-56
2020/12/21 01:35:18;;;;;;;11.43;3.15;;;;;;;;;;4944292;28;20043;-59
2020/12/21 01:37:47;;;;;;;9.27;2.83;;;;;;;;;;4960937;28;20070;-60
2020/12/21 01:40:14;;;;;;;7.38;2.40;;;;;;;;;;4933408;28;20050;-60
2020/12/21 01:42:40;;;;;;;9.82;2.38;;;;;;;;;;4961774;28;20044;-62
2020/12/21 01:45:08;;;;;;;7.40;2.10;;;;;;;;;;4946622;29;20046;-58
2020/12/21 01:47:40;;;;;;;8.07;2.58;;;;;;;;;;4960734;28;20049;-59
2020/12/21 01:50:09;;;;;;;12.52;2.25;;;;;;;;;;4954937;28;20049;-58
2020/12/21 01:52:35;;;;;;;8.00;2.40;;;;;;;;;;4945853;28;20094;-59
2020/12/21 01:55:01;;;;;;;7.75;2.28;;;;;;;;;;4960929;28;20055;-58
2020/12/21 01:57:28;;;;;;;5.15;2.10;;;;;;;;;;4944626;28;20065;-59
2020/12/21 01:59:54;;;;;;;12.70;2.70;;;;;;;;;;4944963;28;20051;-59
2020/12/21 02:02:20;;;;;;;7.38;1.88;;;;;;;;;;4942574;28;20067;-60
2020/12/21 02:04:46;;;;;;;13.75;2.22;;;;;;;;;;4961379;28;20087;-60
2020/12/21 02:07:13;;;;;;;8.68;2.05;;;;;;;;;;4964848;28;20054;-61
2020/12/21 02:09:39;;;;;;;12.57;2.40;;;;;;;;;;4980392;28;20082;-58
2020/12/21 02:12:05;;;;;;;7.18;2.22;;;;;;;;;;4976048;28;20035;-59
2020/12/21 02:14:32;;;;;;;9.00;2.33;;;;;;;;;;4963299;28;20125;-59
2020/12/21 02:16:59;;;;;;;6.50;1.85;;;;;;;;;;4974498;28;20053;-61
2020/12/21 02:19:26;;;;;;;9.25;1.88;;;;;;;;;;4963176;28;20045;-59
2020/12/21 02:21:53;;;;;;;10.55;2.05;;;;;;;;;;4960533;28;20035;-61
2020/12/21 02:24:19;;;;;;;10.90;2.38;;;;;;;;;;4980119;28;20059;-61
2020/12/21 02:26:45;;;;;;;10.15;2.55;;;;;;;;;;4979964;28;20050;-59
2020/12/21 02:29:11;;;;;;;5.70;2.10;;;;;;;;;;4959784;28;20043;-61
2020/12/21 02:31:37;;;;;;;9.88;2.17;;;;;;;;;;4980170;28;20036;-61
2020/12/21 02:34:03;;;;;;;8.45;2.58;;;;;;;;;;4958328;28;20202;-61
2020/12/21 02:36:31;;;;;;;10.30;2.30;;;;;;;;;;4981311;28;20035;-58
2020/12/21 02:38:58;;;;;;;7.35;2.15;;;;;;;;;;4962315;28;20187;-60
2020/12/21 02:41:25;;;;;;;9.25;2.03;;;;;;;;;;4961485;28;20054;-58
2020/12/21 02:43:51;;;;;;;9.55;1.98;;;;;;;;;;4967879;28;20043;-59
2020/12/21 02:46:18;;;;;;;6.00;1.92;;;;;;;;;;4980735;28;20059;-59
2020/12/21 02:48:44;;;;;;;8.63;2.58;;;;;;;;;;4969462;28;20067;-58
2020/12/21 02:51:10;;;;;;;12.85;2.30;;;;;;;;;;4962430;28;20091;-58
2020/12/21 02:53:36;;;;;;;6.95;1.90;;;;;;;;;;4951869;28;20047;-59
2020/12/21 02:56:04;;;;;;;5.25;2.33;;;;;;;;;;4926813;28;20087;-57
2020/12/21 02:58:30;;;;;;;5.88;2.30;;;;;;;;;;4925759;28;20069;-59
2020/12/21 03:00:57;;;;;;;13.88;3.10;;;;;;;;;;4938494;28;20032;-58
2020/12/21 03:03:24;;;;;;;9.00;2.28;;;;;;;;;;4974873;28;20050;-58
2020/12/21 03:05:50;;;;;;;7.63;2.78;;;;;;;;;;4943545;29;20066;-60
2020/12/21 03:08:16;;;;;;;9.80;2.35;;;;;;;;;;4970624;28;20053;-61
2020/12/21 03:10:42;;;;;;;9.75;2.70;;;;;;;;;;4958011;28;20066;-61
2020/12/21 03:13:09;;;;;;;8.23;2.47;;;;;;;;;;4980391;28;20047;-58
2020/12/21 03:15:36;;;;;;;13.00;2.88;;;;;;;;;;4960794;28;20075;-59
2020/12/21 03:18:04;;;;;;;11.68;2.65;;;;;;;;;;4957658;28;20083;-61
2020/12/21 03:20:30;;;;;;;8.68;1.98;;;;;;;;;;4939488;28;20047;-61
2020/12/21 03:22:57;;;;;;;12.93;2.65;;;;;;;;;;4926220;28;20040;-58
2020/12/21 03:25:23;;;;;;;8.65;2.80;;;;;;;;;;4932326;28;20236;-61
2020/12/21 03:27:51;;;;;;;6.93;1.90;;;;;;;;;;4944986;28;20083;-60
2020/12/21 03:30:18;;;;;;;5.30;2.00;;;;;;;;;;4952934;28;20071;-57
2020/12/21 03:32:44;;;;;;;8.10;1.73;;;;;;;;;;4941618;28;20056;-61
2020/12/21 03:35:10;;;;;;;9.15;2.08;;;;;;;;;;4962858;28;20054;-60
2020/12/21 03:37:36;;;;;;;7.88;2.00;;;;;;;;;;4979857;28;20034;-61
2020/12/21 03:40:03;;;;;;;10.32;1.85;;;;;;;;;;4957259;28;20072;-61
2020/12/21 03:42:29;;;;;;;8.43;1.88;;;;;;;;;;4957807;28;20043;-59
2020/12/21 03:44:56;;;;;;;7.18;1.80;;;;;;;;;;4932642;28;20035;-57
2020/12/21 03:47:30;;;;;;;6.40;1.67;;;;;;;;;;4975814;28;20154;-59
2020/12/21 03:49:56;;;;;;;7.35;2.03;;;;;;;;;;4963218;28;20075;-60
2020/12/21 03:52:22;;;;;;;8.70;2.20;;;;;;;;;;4956564;28;20036;-58
2020/12/21 03:54:48;;;;;;;4.68;1.75;;;;;;;;;;4958499;28;20032;-61
2020/12/21 03:57:15;;;;;;;11.35;2.00;;;;;;;;;;4941301;28;20106;-58
2020/12/21 03:59:41;;;;;;;4.90;1.77;;;;;;;;;;4959932;28;20043;-59
2020/12/21 04:02:07;;;;;;;11.23;2.00;;;;;;;;;;4966967;28;20170;-61
2020/12/21 04:04:34;;;;;;;13.93;2.17;;;;;;;;;;4978665;28;20047;-59
2020/12/21 04:07:01;;;;;;;9.85;1.55;;;;;;;;;;4964843;28;20055;-60
2020/12/21 04:09:27;;;;;;;5.80;1.75;;;;;;;;;;4959048;28;20247;-61
2020/12/21 04:11:53;;;;;;;9.60;1.95;;;;;;;;;;4941835;28;20079;-60
2020/12/21 04:14:19;;;;;;;5.70;1.65;;;;;;;;;;4943989;28;20193;-56
2020/12/21 04:16:45;;;;;;;7.78;1.77;;;;;;;;;;4957308;28;20047;-58
2020/12/21 04:19:11;;;;;;;8.80;1.60;;;;;;;;;;4959477;28;20051;-58
2020/12/21 04:21:40;;;;;;;8.23;2.03;;;;;;;;;;4952785;28;20043;-58
2020/12/21 04:24:06;;;;;;;5.50;1.45;;;;;;;;;;4934276;28;20039;-60
2020/12/21 04:26:36;;;;;;;12.93;1.98;;;;;;;;;;4949914;28;20052;-59
2020/12/21 04:29:01;;;;;;;5.35;1.55;;;;;;;;;;4925726;29;20059;-60
2020/12/21 04:31:27;;;;;;;12.75;1.70;;;;;;;;;;4959711;28;20032;-58
2020/12/21 04:33:54;;;;;;;7.15;1.67;;;;;;;;;;4943055;28;20083;-58
2020/12/21 04:36:21;;;;;;;7.55;1.67;;;;;;;;;;4963041;28;20039;-59
2020/12/21 04:38:53;;;;;;;8.77;1.97;;;;;;;;;;4955747;28;20047;-58
2020/12/21 04:41:19;;;;;;;5.75;1.98;;;;;;;;;;4979632;28;20043;-60
2020/12/21 04:43:46;;;;;;;5.82;2.05;;;;;;;;;;4942630;28;20039;-59
2020/12/21 04:46:12;;;;;;;6.40;1.60;;;;;;;;;;4962491;28;20091;-58
2020/12/21 04:48:39;;;;;;;10.15;1.60;;;;;;;;;;4958612;28;20031;-59
2020/12/21 04:51:05;;;;;;;5.30;1.50;;;;;;;;;;4953500;28;20057;-59
2020/12/21 04:53:32;;;;;;;8.25;1.42;;;;;;;;;;4934774;28;20054;-58
2020/12/21 04:55:59;;;;;;;11.48;2.00;;;;;;;;;;4934746;29;20051;-58
2020/12/21 04:58:25;;;;;;;7.72;1.48;;;;;;;;;;4937163;28;20051;-59
2020/12/21 05:00:51;;;;;;;8.25;1.88;;;;;;;;;;4927101;29;20040;-59
2020/12/21 05:03:17;;;;;;;7.65;1.58;;;;;;;;;;4959493;28;20052;-60
2020/12/21 05:05:43;;;;;;;4.25;1.48;;;;;;;;;;4962414;28;20040;-57
2020/12/21 05:08:11;;;;;;;10.55;2.05;;;;;;;;;;4960032;28;20122;-59
2020/12/21 05:10:37;;;;;;;6.65;1.58;;;;;;;;;;4926301;28;20103;-61
2020/12/21 05:13:04;;;;;;;9.25;1.58;;;;;;;;;;4927170;29;20043;-59
2020/12/21 05:15:30;;;;;;;12.10;2.03;;;;;;;;;;4923255;28;20055;-61
2020/12/21 05:18:18;;;;;;;7.18;1.63;;;;;;;;;;4927629;28;20044;-60
2020/12/21 05:20:54;;;;;;;8.60;1.35;;;;;;;;;;4966520;28;20043;-58
2020/12/21 05:23:20;;;;;;;8.48;1.20;;;;;;;;;;4981729;28;20039;-58
2020/12/21 05:25:56;;;;;;;9.05;1.60;;;;;;;;;;4960646;28;20036;-58
2020/12/21 05:28:27;;;;;;;6.43;1.50;;;;;;;;;;4961590;28;20050;-59
2020/12/21 05:30:54;;;;;;;4.45;1.40;;;;;;;;;;4942184;28;20055;-58
2020/12/21 05:33:20;;;;;;;9.27;1.30;;;;;;;;;;4944575;28;20036;-58
2020/12/21 05:35:46;;;;;;;7.95;1.58;;;;;;;;;;4938145;28;20050;-57
2020/12/21 05:38:22;;;;;;;6.97;1.67;;;;;;;;;;4946394;29;20050;-56
2020/12/21 05:40:48;;;;;;;8.50;1.42;;;;;;;;;;4957693;28;20071;-60
2020/12/21 05:43:25;;;;;;;9.00;1.50;;;;;;;;;;4960156;28;20043;-58
2020/12/21 05:46:01;;;;;;;9.13;1.33;;;;;;;;;;4938635;28;20067;-57
2020/12/21 05:48:29;;;;;;;9.75;1.33;;;;;;;;;;4960199;28;20087;-58
2020/12/21 05:50:55;;;;;;;11.90;1.57;;;;;;;;;;4958066;28;20059;-57
2020/12/21 05:53:21;;;;;;;6.63;1.35;;;;;;;;;;4961751;28;20053;-58
2020/12/21 05:55:47;;;;;;;6.07;1.63;;;;;;;;;;4943363;28;20043;-59
2020/12/21 05:58:14;;;;;;;5.32;1.02;;;;;;;;;;4946616;28;20046;-57
2020/12/21 06:00:41;;;;;;;6.22;1.20;;;;;;;;;;4942797;28;20031;-58
2020/12/21 06:03:07;;;;;;;11.77;1.42;;;;;;;;;;4979611;28;20131;-57
2020/12/21 06:05:35;;;;;;;4.18;1.20;;;;;;;;;;4960584;28;20035;-58
2020/12/21 06:08:02;;;;;;;6.30;1.48;;;;;;;;;;4961873;28;20115;-59
2020/12/21 06:10:29;;;;;;;3.90;1.02;;;;;;;;;;4946118;28;20067;-58
2020/12/21 06:12:56;;;;;;;4.75;1.20;;;;;;;;;;4958288;28;20047;-58
2020/12/21 06:15:24;;;;;;;5.20;1.25;;;;;;;;;;4966006;28;20051;-59
2020/12/21 06:17:51;;;;;;;4.97;1.13;;;;;;;;;;4927996;28;20043;-60
2020/12/21 06:20:17;;;;;;;3.65;1.30;;;;;;;;;;4942174;28;20055;-61
2020/12/21 06:22:44;;;;;;;2.70;1.00;;;;;;;;;;4952322;28;20147;-60
2020/12/21 06:25:20;;;;;;;6.25;1.48;;;;;;;;;;4959887;28;20039;-58
2020/12/21 06:27:46;;;;;;;4.95;1.17;;;;;;;;;;4944865;28;20056;-58
2020/12/21 06:30:14;;;;;;;4.53;1.08;;;;;;;;;;4941628;28;20043;-59
2020/12/21 06:32:40;;;;;;;7.18;1.20;;;;;;;;;;4939569;28;20060;-59
2020/12/21 06:35:18;;;;;;;5.95;1.17;;;;;;;;;;4926586;29;20118;-59
2020/12/21 06:37:56;;;;;;;9.75;1.20;;;;;;;;;;4940013;28;20046;-59
2020/12/21 06:40:29;;;;;;;6.63;1.27;;;;;;;;;;4980115;28;20097;-58
2020/12/21 06:42:55;;;;;;;5.65;1.20;;;;;;;;;;4946674;28;20462;-58
2020/12/21 06:45:22;;;;;;;8.15;1.40;;;;;;;;;;4960778;28;20051;-59
2020/12/21 06:47:48;;;;;;;10.18;1.85;;;;;;;;;;4961294;28;20039;-59
2020/12/21 06:50:14;;;;;;;4.95;1.42;;;;;;;;;;4965276;28;20058;-58
2020/12/21 06:52:42;;;;;;;3.90;0.98;;;;;;;;;;4972207;28;20055;-60
2020/12/21 06:55:10;;;;;;;5.53;1.30;;;;;;;;;;4961893;28;20063;-58
2020/12/21 06:57:37;;;;;;;6.83;1.33;;;;;;;;;;4943323;28;20039;-59
2020/12/21 07:00:04;;;;;;;5.40;1.40;;;;;;;;;;4978321;28;20678;-59
2020/12/21 07:02:30;;;;;;;7.80;1.60;;;;;;;;;;4962849;28;20043;-58
2020/12/21 07:04:56;;;;;;;6.68;1.40;;;;;;;;;;4940504;28;20060;-58
2020/12/21 07:07:23;;;;;;;7.45;1.40;;;;;;;;;;4960444;28;20047;-58
2020/12/21 07:09:50;;;;;;;7.65;1.63;;;;;;;;;;4957109;28;20126;-61
2020/12/21 07:12:16;;;;;;;3.25;1.40;;;;;;;;;;4943308;28;20054;-59
2020/12/21 07:14:42;;;;;;;3.95;1.25;;;;;;;;;;4957444;28;20062;-58
2020/12/21 07:17:09;;;;;;;7.57;1.30;;;;;;;;;;4965720;28;20034;-58
2020/12/21 07:19:37;;;;;;;9.35;1.45;;;;;;;;;;4943542;28;20048;-57
2020/12/21 07:22:06;;;;;;;7.50;1.38;;;;;;;;;;4960080;28;20048;-57
2020/12/21 07:24:33;;;;;;;5.00;1.45;;;;;;;;;;4955953;28;20051;-60
2020/12/21 07:27:00;;;;;;;6.88;1.77;;;;;;;;;;4958290;28;20051;-57
2020/12/21 07:29:32;;;;;;;4.28;1.42;;;;;;;;;;4955652;28;20083;-59
2020/12/21 07:31:58;;;;;;;5.65;1.40;;;;;;;;;;4960192;28;20047;-59
2020/12/21 07:34:24;;;;;;;5.28;1.38;;;;;;;;;;4957927;28;20071;-58
2020/12/21 07:36:50;;;;;;;7.22;1.60;;;;;;;;;;4958809;28;20036;-55
2020/12/21 07:39:17;;;;;;;8.63;1.63;;;;;;;;;;4958440;28;20072;-58
2020/12/21 07:41:44;;;;;;;5.72;1.50;;;;;;;;;;4949833;28;20149;-59
2020/12/21 07:44:12;;;;;;;5.72;1.70;;;;;;;;;;4914214;28;20048;-61
2020/12/21 07:46:41;;;;;;;9.65;1.45;;;;;;;;;;4940659;28;20047;-58
2020/12/21 07:49:08;;;;;;;9.80;1.67;;;;;;;;;;4969057;28;20114;-59
2020/12/21 07:51:36;;;;;;;6.30;1.48;;;;;;;;;;4937547;28;20095;-59
2020/12/21 07:54:02;;;;;;;4.97;1.30;;;;;;;;;;4956066;28;20040;-60
2020/12/21 07:56:29;;;;;;;5.38;1.50;;;;;;;;;;4940578;28;20101;-58
2020/12/21 07:58:55;;;;;;;6.53;1.48;;;;;;;;;;4941886;28;20052;-61
2020/12/21 08:01:22;;;;;;;6.18;1.77;;;;;;;;;;4939433;28;20039;-61
2020/12/21 08:03:49;;;;;;;4.97;1.25;;;;;;;;;;4941995;28;20043;-59
2020/12/21 08:06:18;;;;;;;14.50;1.67;;;;;;;;;;4940697;28;20113;-60
2020/12/21 08:08:44;;;;;;;6.32;1.58;;;;;;;;;;4946347;28;20054;-60
2020/12/21 08:11:14;;;;;;;5.63;1.60;;;;;;;;;;4942789;28;20119;-58
2020/12/21 08:13:44;;;;;;;9.90;1.95;;;;;;;;;;4942712;28;20040;-61
2020/12/21 08:16:10;;;;;;;11.35;1.35;;;;;;;;;;4945238;28;20044;-57
2020/12/21 08:18:37;;;;;;;7.43;1.50;;;;;;;;;;4955287;28;20072;-60
2020/12/21 08:21:04;;;;;;;6.38;1.60;;;;;;;;;;4929893;28;20151;-58
2020/12/21 08:23:30;;;;;;;5.75;1.65;;;;;;;;;;4963031;28;20048;-58
2020/12/21 08:25:58;;;;;;;5.07;1.58;;;;;;;;;;4960636;28;20051;-61
2020/12/21 08:28:25;;;;;;;7.07;1.50;;;;;;;;;;4965674;28;20038;-61
2020/12/21 08:30:51;;;;;;;13.05;1.73;;;;;;;;;;4965323;28;20035;-59
2020/12/21 08:33:17;;;;;;;10.52;2.20;;;;;;;;;;4944707;28;20051;-58
2020/12/21 08:35:44;;;;;;;10.63;2.33;;;;;;;;;;4947707;28;20238;-58
2020/12/21 08:38:13;;;;;;;5.60;1.42;;;;;;;;;;4957435;28;20059;-58
2020/12/21 08:40:40;;;;;;;5.40;1.52;;;;;;;;;;4946709;28;20051;-60
2020/12/21 08:43:06;;;;;;;9.20;1.73;;;;;;;;;;4944009;28;20067;-59
2020/12/21 08:45:35;;;;;;;7.50;1.95;;;;;;;;;;4962295;28;20058;-59
2020/12/21 08:48:02;;;;;;;6.15;1.50;;;;;;;;;;4943070;28;20050;-58
2020/12/21 08:50:28;;;;;;;5.43;1.70;;;;;;;;;;4961224;28;20144;-58
2020/12/21 08:52:55;;;;;;;7.55;1.73;;;;;;;;;;4943987;28;20438;-60
2020/12/21 08:55:21;;;;;;;7.60;1.70;;;;;;;;;;4962181;28;20070;-59
2020/12/21 08:57:48;;;;;;;10.25;1.77;;;;;;;;;;4940464;28;20074;-59
2020/12/21 09:00:14;;;;;;;7.72;1.80;;;;;;;;;;4962378;28;20051;-59
2020/12/21 09:02:40;;;;;;;2.97;1.20;;;;;;;;;;4952594;28;20133;-61
2020/12/21 09:05:06;;;;;;;4.20;1.30;;;;;;;;;;4962673;28;20036;-60
2020/12/21 09:07:33;;;;;;;2.80;1.17;;;;;;;;;;4959294;28;20035;-60
2020/12/21 09:10:03;;;;;;;2.92;1.15;;;;;;;;;;4946387;28;20043;-60
2020/12/21 09:12:29;;;;;;;3.72;1.25;;;;;;;;;;4962911;28;20054;-59
2020/12/21 09:14:55;;;;;;;7.50;1.30;;;;;;;;;;4934830;28;20047;-61
2020/12/21 09:17:22;;;;;;;7.85;1.27;;;;;;;;;;4946237;28;20042;-61
2020/12/21 09:19:48;;;;;;;8.63;1.42;;;;;;;;;;4942010;28;20058;-59
2020/12/21 09:22:15;;;;;;;11.60;1.92;;;;;;;;;;4962105;28;20149;-61
2020/12/21 09:24:41;;;;;;;3.55;1.25;;;;;;;;;;4929158;29;20056;-61
2020/12/21 09:27:08;;;;;;;8.40;1.15;;;;;;;;;;4910568;29;20123;-58
2020/12/21 09:29:34;;;;;;;7.53;1.17;;;;;;;;;;4905358;29;20052;-60
2020/12/21 09:32:00;;;;;;;5.20;1.15;;;;;;;;;;4892773;29;20065;-60
2020/12/21 09:34:29;;;;;;;5.05;1.52;;;;;;;;;;4898067;29;20072;-60
2020/12/21 09:36:55;;;;;;;;;;;;;;;;;;4926881;29;20111;-59
2020/12/21 09:39:21;;;;;;;2.75;1.23;;;;;;;;;;4922350;29;19931;-60
2020/12/21 09:41:48;;;;;;;11.15;1.30;;;;;;;;;;4907959;29;20044;-59
2020/12/21 09:44:16;;;;;;;11.77;1.67;;;;;;;;;;4908488;29;20064;-61
2020/12/21 09:46:43;;;;;;;7.60;1.60;;;;;;;;;;4928247;29;20048;-62
2020/12/21 09:49:09;;;;;;;6.13;1.50;;;;;;;;;;4923527;29;20048;-61
2020/12/21 09:51:35;;;;;;;6.60;1.60;;;;;;;;;;4910832;29;20059;-59
2020/12/21 09:54:01;;;;;;;7.40;1.25;;;;;;;;;;4910706;29;20036;-58
2020/12/21 09:56:27;;;;;;;4.57;1.40;;;;;;;;;;4923256;29;20063;-58
2020/12/21 09:58:53;;;;;;;8.27;1.17;;;;;;;;;;4909181;29;20048;-61
2020/12/21 10:01:26;;;;;;;4.03;1.27;;;;;;;;;;4911190;29;20079;-61
2020/12/21 10:03:54;;;;;;;8.02;1.40;;;;;;;;;;4944826;28;20036;-59
2020/12/21 10:06:20;;;;;;;8.63;1.40;;;;;;;;;;4913474;29;20063;-59
2020/12/21 10:08:46;;;;;;;8.30;1.60;;;;;;;;;;4927266;29;20050;-58
2020/12/21 10:11:12;;;;;;;7.57;1.48;;;;;;;;;;4905556;29;20092;-61
2020/12/21 10:13:38;;;;;;;8.02;1.30;;;;;;;;;;4910171;29;20064;-60
2020/12/21 10:16:04;;;;;;;4.50;1.20;;;;;;;;;;4911229;29;20051;-60
2020/12/21 10:18:31;;;;;;;8.43;1.60;;;;;;;;;;4926037;29;20048;-61
2020/12/21 10:20:57;;;;;;;5.78;1.38;;;;;;;;;;4908567;29;20032;-60
2020/12/21 10:23:23;;;;;;;5.32;1.48;;;;;;;;;;4932235;28;20039;-60
2020/12/21 10:25:50;;;;;;;7.78;1.70;;;;;;;;;;4959034;28;20059;-60
2020/12/21 10:28:16;;;;;;;5.32;1.70;;;;;;;;;;4944268;29;20049;-62
2020/12/21 10:30:42;;;;;;;5.50;1.40;;;;;;;;;;4959464;28;20046;-58
2020/12/21 10:33:08;;;;;;;10.57;1.50;;;;;;;;;;4960598;28;20064;-58
2020/12/21 10:35:38;;;;;;;7.90;1.38;;;;;;;;;;4944378;28;20043;-59
2020/12/21 10:38:04;;;;;;;7.35;1.38;;;;;;;;;;4950761;28;20040;-59
2020/12/21 10:40:30;;;;;;;4.70;1.40;;;;;;;;;;4946638;28;20126;-59
2020/12/21 10:42:56;;;;;;;3.60;1.25;;;;;;;;;;4956364;28;20130;-59
2020/12/21 10:45:22;;;;;;;4.35;1.05;;;;;;;;;;4960268;28;20036;-59
2020/12/21 10:47:48;;;;;;;9.10;1.45;;;;;;;;;;4942593;28;20044;-59
2020/12/21 10:50:14;;;;;;;7.32;1.45;;;;;;;;;;4960029;28;20075;-61
2020/12/21 10:52:41;;;;;;;3.65;1.30;;;;;;;;;;4966464;28;20047;-59
2020/12/21 10:55:07;;;;;;;4.43;1.20;;;;;;;;;;4977929;28;20049;-59
2020/12/21 10:57:33;;;;;;;7.80;1.30;;;;;;;;;;4954167;28;20036;-58
2020/12/21 11:00:00;;;;;;;4.18;1.45;;;;;;;;;;4959962;28;20043;-58
2020/12/21 11:02:26;;;;;;;8.25;1.70;;;;;;;;;;4966987;28;20032;-59
2020/12/21 11:04:54;;;;;;;9.90;1.73;;;;;;;;;;4944675;28;20051;-60
2020/12/21 11:07:21;;;;;;;10.98;1.67;;;;;;;;;;4940237;28;20056;-58
2020/12/21 11:09:48;;;;;;;6.93;1.40;;;;;;;;;;4963068;28;20043;-59
2020/12/21 11:12:14;;;;;;;5.65;1.35;;;;;;;;;;4929001;28;20054;-60
2020/12/21 11:14:41;;;;;;;7.10;1.48;;;;;;;;;;4938672;28;20036;-60
2020/12/21 11:17:07;;;;;;;9.20;1.70;;;;;;;;;;4951858;28;20043;-60
2020/12/21 11:19:33;;;;;;;7.13;1.48;;;;;;;;;;4944741;28;20062;-61
2020/12/21 11:21:59;;;;;;;7.75;1.55;;;;;;;;;;4960765;28;20043;-59
2020/12/21 11:24:27;;;;;;;4.80;1.48;;;;;;;;;;4943583;28;20043;-59
2020/12/21 11:26:56;;;;;;;7.78;1.30;;;;;;;;;;4925607;28;20058;-61
2020/12/21 11:29:21;;;;;;;6.03;1.40;;;;;;;;;;4943505;28;20047;-60
2020/12/21 11:31:47;;;;;;;5.78;1.27;;;;;;;;;;4963356;28;20121;-61
2020/12/21 11:34:13;;;;;;;7.70;1.80;;;;;;;;;;4952490;28;20047;-61
2020/12/21 11:36:41;;;;;;;3.45;1.15;;;;;;;;;;4959444;28;20080;-61
2020/12/21 11:39:07;;;;;;;5.07;1.38;;;;;;;;;;4944602;28;20054;-61
2020/12/21 11:41:33;;;;;;;5.22;1.35;;;;;;;;;;4976244;28;20563;-58
2020/12/21 11:44:00;;;;;;;10.20;1.67;;;;;;;;;;4941092;28;20059;-59
2020/12/21 11:46:30;;;;;;;3.60;1.25;;;;;;;;;;4960763;28;20050;-58
2020/12/21 11:48:56;;;;;;;4.60;1.55;;;;;;;;;;4956914;28;20076;-61
2020/12/21 11:51:22;;;;;;;3.58;0.98;;;;;;;;;;4943214;29;20055;-60
2020/12/21 11:53:48;;;;;;;6.93;1.63;;;;;;;;;;4962001;28;20040;-59
2020/12/21 11:56:16;;;;;;;4.50;1.35;;;;;;;;;;4956284;28;20043;-60
2020/12/21 11:58:42;;;;;;;5.72;1.40;;;;;;;;;;4944106;28;20080;-60
2020/12/21 12:01:09;;;;;;;4.55;1.60;;;;;;;;;;4943212;28;20051;-59
2020/12/21 12:03:35;;;;;;;4.60;1.05;;;;;;;;;;4964156;28;20489;-61
2020/12/21 12:06:01;;;;;;;5.22;1.45;;;;;;;;;;4947355;28;20050;-58
2020/12/21 12:08:27;;;;;;;5.95;1.73;;;;;;;;;;4959599;28;20088;-62
2020/12/21 12:10:53;;;;;;;4.28;1.10;;;;;;;;;;4948578;28;20123;-59
2020/12/21 12:13:19;;;;;;;5.63;1.08;;;;;;;;;;4963688;28;20083;-61
2020/12/21 12:15:45;;;;;;;5.63;1.40;;;;;;;;;;4952762;28;20135;-61
2020/12/21 12:18:12;;;;;;;5.75;1.50;;;;;;;;;;4945156;28;20044;-61
2020/12/21 12:20:38;;;;;;;9.98;1.63;;;;;;;;;;4957967;28;20175;-61
2020/12/21 12:23:05;;;;;;;7.85;1.63;;;;;;;;;;4976805;28;20047;-58
2020/12/21 12:25:31;;;;;;;6.03;1.38;;;;;;;;;;4975839;28;20102;-61
2020/12/21 12:27:57;;;;;;;7.63;1.40;;;;;;;;;;4960280;28;20040;-59
2020/12/21 12:30:24;;;;;;;6.93;1.63;;;;;;;;;;4942146;28;20055;-58
2020/12/21 12:32:50;;;;;;;6.05;1.50;;;;;;;;;;4970105;28;20038;-59
2020/12/21 12:35:18;;;;;;;5.53;1.83;;;;;;;;;;4962110;28;20079;-60
2020/12/21 12:37:45;;;;;;;4.30;1.30;;;;;;;;;;4940474;28;20039;-59
2020/12/21 12:40:11;;;;;;;5.95;1.50;;;;;;;;;;4943877;28;20046;-61
2020/12/21 12:42:37;;;;;;;6.13;1.58;;;;;;;;;;4938381;28;20071;-60
2020/12/21 12:45:06;;;;;;;4.78;1.80;;;;;;;;;;4943096;29;20053;-60
2020/12/21 12:47:33;;;;;;;8.15;2.42;;;;;;;;;;4935276;28;20039;-59
2020/12/21 12:49:59;;;;;;;4.18;1.55;;;;;;;;;;4958506;28;20042;-62
2020/12/21 12:52:26;;;;;;;3.03;1.33;;;;;;;;;;4960844;28;20140;-59
2020/12/21 12:54:52;;;;;;;7.32;1.83;;;;;;;;;;4965111;28;20082;-59
2020/12/21 12:57:18;;;;;;;6.13;1.50;;;;;;;;;;4971203;28;20074;-59
2020/12/21 12:59:44;;;;;;;3.40;1.23;;;;;;;;;;4962044;28;20032;-59
2020/12/21 13:02:13;;;;;;;4.82;1.40;;;;;;;;;;4953028;28;20043;-60
2020/12/21 13:04:39;;;;;;;2.92;0.75;;;;;;;;;;4946692;28;20047;-61
2020/12/21 13:07:05;;;;;;;3.65;1.00;;;;;;;;;;4963499;28;20698;-64
2020/12/21 13:09:32;;;;;;;9.35;1.77;;;;;;;;;;4962185;28;20051;-61
2020/12/21 13:11:58;;;;;;;3.55;1.20;;;;;;;;;;4944264;28;20036;-60
2020/12/21 13:14:24;;;;;;;2.33;1.17;;;;;;;;;;4978628;28;20170;-62
2020/12/21 13:16:51;;;;;;;6.18;1.45;;;;;;;;;;4966325;28;20057;-58
2020/12/21 13:19:17;;;;;;;1.88;0.90;;;;;;;;;;4976022;28;20070;-59
2020/12/21 13:21:43;;;;;;;2.45;0.75;;;;;;;;;;4966807;28;20058;-59
2020/12/21 13:24:09;;;;;;;4.65;1.42;;;;;;;;;;4977050;28;20050;-59
2020/12/21 13:26:38;;;;;;;8.82;1.48;;;;;;;;;;4978959;28;20046;-59
2020/12/21 13:29:04;;;;;;;4.00;0.90;;;;;;;;;;4976196;28;20039;-59
2020/12/21 13:31:30;;;;;;;4.30;1.60;;;;;;;;;;4980515;28;20043;-59
2020/12/21 13:33:56;;;;;;;2.63;1.02;;;;;;;;;;4974766;28;20075;-59
2020/12/21 13:36:22;;;;;;;3.95;1.20;;;;;;;;;;4944590;28;20063;-61
2020/12/21 13:38:48;;;;;;;5.65;1.10;;;;;;;;;;4957681;28;20054;-59
2020/12/21 13:41:14;;;;;;;3.97;1.35;;;;;;;;;;4963360;28;20046;-58
2020/12/21 13:43:42;;;;;;;2.72;1.20;;;;;;;;;;4942766;28;20043;-60
2020/12/21 13:46:08;;;;;;;5.40;1.50;;;;;;;;;;4963949;28;20176;-58
2020/12/21 13:48:34;;;;;;;5.80;1.60;;;;;;;;;;4959382;28;20118;-60
2020/12/21 13:51:00;;;;;;;4.63;1.17;;;;;;;;;;4945687;28;20043;-60
2020/12/21 13:53:28;;;;;;;1.77;0.95;;;;;;;;;;4962466;28;20035;-60
2020/12/21 13:55:55;;;;;;;4.47;1.33;;;;;;;;;;4967833;28;20041;-60
2020/12/21 13:58:21;;;;;;;5.53;1.25;;;;;;;;;;4951675;28;20039;-60
2020/12/21 14:00:48;;;;;;;1.30;0.65;;;;;;;;;;4958743;28;20051;-61
2020/12/21 14:03:14;;;;;;;3.63;1.20;;;;;;;;;;4922520;28;20074;-62
2020/12/21 14:05:40;;;;;;;5.80;1.35;;;;;;;;;;4945018;28;20032;-61
2020/12/21 14:08:06;;;;;;;4.57;1.38;;;;;;;;;;4949811;28;20038;-59
2020/12/21 14:10:32;;;;;;;9.05;1.17;;;;;;;;;;4940851;28;20047;-60
2020/12/21 14:13:01;;;;;;;2.17;0.80;;;;;;;;;;4942928;29;20064;-60
2020/12/21 14:15:27;;;;;;;7.10;2.88;;;;;;;;;;4931043;28;20050;-59
2020/12/21 14:17:55;;;;;;;4.85;1.45;;;;;;;;;;4961788;28;20063;-59
2020/12/21 14:20:21;;;;;;;4.85;1.50;;;;;;;;;;4947819;28;20077;-61
2020/12/21 14:22:50;;;;;;;1.25;0.77;;;;;;;;;;4969312;28;20358;-61
2020/12/21 14:25:16;;;;;;;5.00;1.27;;;;;;;;;;4956147;28;20114;-61
2020/12/21 14:27:42;;;;;;;9.57;2.20;;;;;;;;;;4959373;28;20047;-59
2020/12/21 14:30:08;;;;;;;3.83;1.13;;;;;;;;;;4958900;28;20086;-59
2020/12/21 14:32:34;;;;;;;1.17;0.80;;;;;;;;;;4961157;28;20051;-61
2020/12/21 14:35:01;;;;;;;5.60;1.10;;;;;;;;;;4958429;28;20055;-60
2020/12/21 14:37:28;;;;;;;3.03;1.13;;;;;;;;;;4972310;28;20091;-59
2020/12/21 14:39:56;;;;;;;3.17;0.30;;;;;;;;;;4963618;28;20053;-59